Sao Tome, Sao Tome and Principe
Current Conditions -  °F | °C
As of 9:00 AM on Saturday 25 Oct 2014 (Local Time) from FPST Reporting Station
Scattered Clouds Scattered Clouds  
Wind Chill: 79°   Ceiling: Unl
Heat Index: 82°   Visibility: 6mi
Dew Point: 75°   Wind: 12mph
Humidity: 89%   Direction: 160°SSE
Pressure: 29.91"   Gusts: NA
Location:  0.37°N, 6.73°E
Report Text: FPST 250900Z 16010KT 9999 FEW020CB SCT040 BKN11000FT 26/24 Q1013 NOSIG
Loading
Personal Weather Stations






























Interactive Weather Map
Tropical Storm Tracking
New forecast layout! Learn more

10-Day Weather Forecast

Advertisements
Track Severe Weather on mobile